Time;durP1;ratioP1;P1;durP2;ratioP2;P2;SDS_P1;SDS_P2;PMS_P1;PMS_P2;Temp;Humidity;BMP_temperature;BMP_pressure;BME280_temperature;BME280_humidity;BME280_pressure;Samples;Min_cycle;Max_cycle;Signal;HPM_P1;HPM_P2
2022/11/12 00:00:31;;;;;;;15.73;13.93;;;;;;;;;;5032666;28;20429;-84
2022/11/12 00:02:57;;;;;;;15.97;14.30;;;;;;;;;;5032883;28;20796;-84
2022/11/12 00:05:23;;;;;;;15.00;13.40;;;;;;;;;;5032715;28;20433;-84
2022/11/12 00:07:49;;;;;;;17.83;13.23;;;;;;;;;;5032970;28;20449;-84
2022/11/12 00:10:16;;;;;;;14.30;12.90;;;;;;;;;;5032566;28;20391;-84
2022/11/12 00:12:42;;;;;;;15.10;13.65;;;;;;;;;;5032530;28;20871;-84
2022/11/12 00:15:08;;;;;;;13.85;12.52;;;;;;;;;;5032621;28;20383;-84
2022/11/12 00:17:34;;;;;;;14.70;13.23;;;;;;;;;;5032483;28;20407;-84
2022/11/12 00:20:00;;;;;;;14.27;12.88;;;;;;;;;;5032643;28;20473;-85
2022/11/12 00:22:26;;;;;;;15.27;13.55;;;;;;;;;;5032486;28;20418;-84
2022/11/12 00:24:52;;;;;;;13.82;12.43;;;;;;;;;;5032663;28;20411;-83
2022/11/12 00:27:18;;;;;;;14.20;12.80;;;;;;;;;;5032579;28;20868;-84
2022/11/12 00:29:44;;;;;;;15.07;13.60;;;;;;;;;;5032363;28;20398;-84
2022/11/12 00:32:10;;;;;;;13.88;12.55;;;;;;;;;;5032320;28;20386;-84
2022/11/12 00:34:36;;;;;;;14.52;13.05;;;;;;;;;;5032436;28;20386;-84
2022/11/12 00:37:02;;;;;;;13.90;12.50;;;;;;;;;;5032303;28;20387;-83
2022/11/12 00:39:28;;;;;;;13.77;12.48;;;;;;;;;;5032330;28;20848;-84
2022/11/12 00:41:54;;;;;;;13.85;12.63;;;;;;;;;;5032351;28;20743;-84
2022/11/12 00:44:20;;;;;;;13.93;12.60;;;;;;;;;;5032222;28;20394;-84
2022/11/12 00:46:46;;;;;;;16.92;15.10;;;;;;;;;;5032122;28;20486;-84
2022/11/12 00:49:12;;;;;;;25.77;18.77;;;;;;;;;;5031982;28;20775;-84
2022/11/12 00:51:38;;;;;;;20.00;15.88;;;;;;;;;;5031857;28;20395;-84
2022/11/12 00:54:04;;;;;;;69.20;31.27;;;;;;;;;;5032024;28;20387;-83
2022/11/12 00:56:30;;;;;;;22.80;15.98;;;;;;;;;;5031979;28;20401;-83
2022/11/12 00:58:59;;;;;;;15.30;13.75;;;;;;;;;;5032165;28;20442;-84
2022/11/12 06:00:15;;;;;;;13.82;10.90;;;;;;;;;;6106554;23;20410;-84
2022/11/12 06:02:41;;;;;;;14.60;10.85;;;;;;;;;;5047554;23;21306;-84
2022/11/12 06:05:07;;;;;;;16.48;12.07;;;;;;;;;;5018279;28;20477;-85
2022/11/12 06:07:33;;;;;;;17.13;12.27;;;;;;;;;;5036548;28;20482;-85
2022/11/12 06:09:59;;;;;;;16.45;11.90;;;;;;;;;;5040229;28;20463;-85
2022/11/12 06:12:25;;;;;;;17.23;12.57;;;;;;;;;;5035257;28;20401;-85
2022/11/12 06:14:51;;;;;;;18.92;12.85;;;;;;;;;;5035196;28;20398;-85
2022/11/12 06:17:17;;;;;;;22.05;14.00;;;;;;;;;;5034094;28;20450;-85
2022/11/12 06:19:43;;;;;;;22.27;14.00;;;;;;;;;;5032802;28;20732;-85
2022/11/12 06:22:09;;;;;;;20.77;13.63;;;;;;;;;;5032962;28;20380;-85
2022/11/12 06:24:35;;;;;;;21.17;14.07;;;;;;;;;;5034403;28;20506;-85
2022/11/12 06:27:01;;;;;;;19.85;13.13;;;;;;;;;;5034646;28;20466;-85
2022/11/12 06:29:28;;;;;;;16.83;12.65;;;;;;;;;;5017424;28;20737;-85
2022/11/12 06:31:54;;;;;;;48.45;29.63;;;;;;;;;;5033602;28;20379;-85
2022/11/12 06:34:20;;;;;;;22.00;14.70;;;;;;;;;;5034871;28;20744;-85
2022/11/12 06:36:47;;;;;;;18.40;13.13;;;;;;;;;;5048488;28;20386;-86
2022/11/12 06:39:13;;;;;;;22.25;13.82;;;;;;;;;;5039330;28;20481;-86
2022/11/12 06:41:39;;;;;;;19.95;13.98;;;;;;;;;;5039268;28;20399;-86
2022/11/12 06:44:05;;;;;;;22.92;14.68;;;;;;;;;;5034118;28;20387;-86
2022/11/12 06:46:31;;;;;;;21.50;15.65;;;;;;;;;;5034241;28;20403;-85
2022/11/12 06:48:57;;;;;;;21.15;14.75;;;;;;;;;;5032448;28;20390;-85
2022/11/12 06:51:24;;;;;;;17.48;13.27;;;;;;;;;;5036442;28;20407;-84
2022/11/12 06:53:50;;;;;;;28.40;17.58;;;;;;;;;;5036120;28;20718;-85
2022/11/12 06:56:16;;;;;;;32.88;19.05;;;;;;;;;;5033218;28;20875;-85
2022/11/12 06:58:42;;;;;;;27.67;16.13;;;;;;;;;;5032486;28;20411;-85
2022/11/12 07:01:10;;;;;;;22.45;15.27;;;;;;;;;;5031691;28;20383;-84
2022/11/12 07:03:36;;;;;;;23.33;14.63;;;;;;;;;;5032120;28;20418;-85
2022/11/12 07:06:09;;;;;;;26.52;15.60;;;;;;;;;;5031534;28;20375;-84
2022/11/12 07:08:35;;;;;;;21.48;14.82;;;;;;;;;;5038769;28;20400;-86
2022/11/12 07:11:01;;;;;;;24.33;14.70;;;;;;;;;;5033632;28;20521;-84
2022/11/12 07:13:30;;;;;;;22.02;14.40;;;;;;;;;;5035157;28;20399;-85
2022/11/12 07:15:57;;;;;;;22.75;14.68;;;;;;;;;;5037716;28;20391;-86
2022/11/12 07:18:23;;;;;;;20.65;15.27;;;;;;;;;;5033655;28;20407;-86
2022/11/12 07:20:49;;;;;;;22.42;15.02;;;;;;;;;;5053826;28;20874;-86
2022/11/12 07:23:15;;;;;;;26.50;15.95;;;;;;;;;;5055815;28;20384;-86
2022/11/12 07:25:41;;;;;;;24.90;16.63;;;;;;;;;;5055675;28;20421;-86
2022/11/12 07:28:07;;;;;;;22.52;15.27;;;;;;;;;;5053634;28;20924;-86
2022/11/12 07:30:33;;;;;;;22.50;15.33;;;;;;;;;;5053743;28;20728;-87
2022/11/12 07:32:59;;;;;;;19.80;14.32;;;;;;;;;;5053775;28;20382;-88
2022/11/12 07:35:25;;;;;;;22.33;15.55;;;;;;;;;;5055473;28;20412;-88
2022/11/12 07:37:52;;;;;;;20.85;14.80;;;;;;;;;;5049578;28;20398;-88
2022/11/12 07:40:18;;;;;;;22.33;15.27;;;;;;;;;;5035007;28;20387;-87
2022/11/12 07:42:44;;;;;;;23.30;15.33;;;;;;;;;;5031993;28;20792;-88
2022/11/12 07:45:10;;;;;;;21.40;14.77;;;;;;;;;;5033346;28;20407;-87
2022/11/12 07:47:36;;;;;;;21.88;16.02;;;;;;;;;;5033853;28;20379;-88
2022/11/12 07:50:02;;;;;;;24.38;16.60;;;;;;;;;;5045174;28;20391;-88
2022/11/12 07:52:28;;;;;;;23.95;16.85;;;;;;;;;;5033259;28;20387;-88
2022/11/12 07:54:54;;;;;;;24.52;17.50;;;;;;;;;;5033644;28;20501;-86
2022/11/12 07:57:20;;;;;;;22.92;16.70;;;;;;;;;;5036596;28;20407;-89
2022/11/12 07:59:46;;;;;;;25.13;17.77;;;;;;;;;;5033906;28;20445;-92
2022/11/12 08:02:12;;;;;;;23.60;16.67;;;;;;;;;;5032781;28;20871;-90
2022/11/12 08:04:38;;;;;;;21.35;15.10;;;;;;;;;;5032442;28;20390;-90
2022/11/12 08:07:04;;;;;;;19.10;14.17;;;;;;;;;;5033016;28;20375;-88
2022/11/12 08:09:30;;;;;;;17.83;13.98;;;;;;;;;;5032861;28;20371;-90
2022/11/12 08:11:56;;;;;;;19.63;14.57;;;;;;;;;;5031987;28;20371;-89
2022/11/12 08:14:23;;;;;;;20.02;14.55;;;;;;;;;;5036376;28;20931;-90
2022/11/12 08:16:49;;;;;;;17.60;14.10;;;;;;;;;;5043291;28;20911;-91
2022/11/12 08:19:15;;;;;;;20.13;15.52;;;;;;;;;;5047020;28;20397;-89
2022/11/12 08:21:41;;;;;;;18.67;14.43;;;;;;;;;;5032659;28;20371;-90
2022/11/12 08:24:07;;;;;;;17.83;14.10;;;;;;;;;;5043253;28;20387;-90
2022/11/12 08:26:33;;;;;;;16.70;13.80;;;;;;;;;;5043219;28;20479;-89
2022/11/12 08:28:59;;;;;;;21.88;15.70;;;;;;;;;;5046267;28;20423;-89
2022/11/12 08:31:25;;;;;;;16.60;13.27;;;;;;;;;;5053088;28;20387;-90
2022/11/12 08:33:51;;;;;;;18.33;14.50;;;;;;;;;;5047056;28;20394;-90
2022/11/12 08:36:18;;;;;;;19.33;14.68;;;;;;;;;;5041252;28;20494;-90
2022/11/12 08:38:44;;;;;;;17.67;13.18;;;;;;;;;;5035784;28;20422;-89
2022/11/12 08:41:11;;;;;;;16.83;13.77;;;;;;;;;;5053589;28;20464;-89
2022/11/12 08:43:38;;;;;;;17.50;13.75;;;;;;;;;;5051981;28;20377;-92
2022/11/12 08:46:04;;;;;;;17.07;13.73;;;;;;;;;;5033219;28;20383;-91
2022/11/12 08:48:31;;;;;;;17.10;13.07;;;;;;;;;;5031208;28;20798;-89
2022/11/12 08:50:57;;;;;;;17.98;13.63;;;;;;;;;;5031149;28;20470;-89
2022/11/12 08:53:24;;;;;;;15.30;13.10;;;;;;;;;;5029721;28;20390;-90
2022/11/12 08:55:54;;;;;;;17.17;14.18;;;;;;;;;;5032154;28;20405;-88
2022/11/12 08:58:20;;;;;;;19.52;15.07;;;;;;;;;;5030481;28;20801;-90
2022/11/12 09:00:46;;;;;;;19.70;14.53;;;;;;;;;;5030546;28;20411;-90
2022/11/12 09:03:16;;;;;;;19.52;14.82;;;;;;;;;;5030292;28;20478;-90
2022/11/12 09:05:42;;;;;;;22.80;16.73;;;;;;;;;;5043934;28;20387;-90
2022/11/12 09:08:10;;;;;;;23.83;16.70;;;;;;;;;;5032339;28;20393;-91
2022/11/12 09:10:36;;;;;;;20.65;15.32;;;;;;;;;;5032143;28;20397;-91
2022/11/12 09:13:02;;;;;;;24.45;17.00;;;;;;;;;;5032515;28;20419;-91
2022/11/12 09:15:28;;;;;;;19.52;16.15;;;;;;;;;;5032225;28;20938;-90
2022/11/12 09:17:55;;;;;;;20.00;15.70;;;;;;;;;;5032533;28;20399;-91
2022/11/12 09:20:21;;;;;;;21.10;15.52;;;;;;;;;;5042737;28;20375;-91
2022/11/12 09:22:47;;;;;;;22.83;17.67;;;;;;;;;;5054428;28;20404;-91
2022/11/12 09:25:13;;;;;;;25.10;18.08;;;;;;;;;;5056718;28;20906;-90
2022/11/12 09:27:39;;;;;;;22.45;17.02;;;;;;;;;;5048999;28;20401;-91
2022/11/12 09:30:06;;;;;;;20.17;15.75;;;;;;;;;;5039776;28;20390;-90
2022/11/12 09:32:32;;;;;;;18.45;15.45;;;;;;;;;;5038907;28;20383;-90
2022/11/12 09:34:58;;;;;;;16.08;13.60;;;;;;;;;;5039819;28;20375;-90
2022/11/12 09:37:24;;;;;;;19.23;14.50;;;;;;;;;;5037147;28;20418;-91
2022/11/12 09:39:50;;;;;;;17.85;14.68;;;;;;;;;;5039005;28;20391;-90
2022/11/12 09:42:18;;;;;;;16.15;13.25;;;;;;;;;;5039484;28;20458;-90
2022/11/12 09:44:46;;;;;;;15.05;12.93;;;;;;;;;;5039396;28;20379;-90
2022/11/12 09:47:32;;;;;;;14.52;13.02;;;;;;;;;;5039796;28;20387;-91
2022/11/12 09:50:02;;;;;;;15.60;14.00;;;;;;;;;;5052345;28;20390;-90
2022/11/12 09:52:29;;;;;;;14.50;13.00;;;;;;;;;;5019648;28;20387;-90
2022/11/12 09:55:06;;;;;;;14.80;13.13;;;;;;;;;;5035834;28;20380;-90
2022/11/12 09:57:32;;;;;;;16.02;14.38;;;;;;;;;;5041073;28;20748;-91
2022/11/12 09:59:58;;;;;;;20.65;15.95;;;;;;;;;;5036752;28;20857;-90
2022/11/12 10:02:24;;;;;;;17.80;15.00;;;;;;;;;;5035730;28;20481;-90
2022/11/12 10:05:13;;;;;;;24.90;17.63;;;;;;;;;;5035948;28;20864;-90
2022/11/12 10:07:49;;;;;;;18.73;15.35;;;;;;;;;;5055498;28;20399;-90
2022/11/12 10:10:18;;;;;;;18.15;15.23;;;;;;;;;;5057437;28;20370;-91
2022/11/12 10:12:47;;;;;;;15.80;14.15;;;;;;;;;;5055603;28;20378;-90
2022/11/12 10:18:19;;;;;;;22.67;17.27;;;;;;;;;;5055763;28;20774;-92
2022/11/12 10:20:55;;;;;;;18.02;15.13;;;;;;;;;;5055871;28;20392;-90
2022/11/12 10:23:27;;;;;;;17.83;15.90;;;;;;;;;;5056069;28;20381;-91
2022/11/12 10:25:57;;;;;;;20.98;18.02;;;;;;;;;;5056189;28;20382;-90
2022/11/12 10:28:39;;;;;;;25.85;19.92;;;;;;;;;;5057329;28;20771;-91
2022/11/12 10:31:09;;;;;;;19.17;16.23;;;;;;;;;;5056086;28;20474;-89
2022/11/12 10:33:35;;;;;;;19.13;16.83;;;;;;;;;;5054756;28;20406;-90
2022/11/12 10:36:21;;;;;;;19.00;16.83;;;;;;;;;;5059361;28;20385;-90
2022/11/12 10:38:48;;;;;;;20.65;17.33;;;;;;;;;;5057784;28;20416;-91
2022/11/12 10:41:34;;;;;;;26.38;20.25;;;;;;;;;;5057285;28;20393;-90
2022/11/12 10:44:04;;;;;;;31.88;22.75;;;;;;;;;;5056722;28;20412;-90
2022/11/12 10:46:32;;;;;;;27.67;21.70;;;;;;;;;;5046380;28;20449;-90
2022/11/12 10:49:00;;;;;;;30.88;24.40;;;;;;;;;;5033455;28;20391;-90
2022/11/12 10:51:35;;;;;;;35.17;26.30;;;;;;;;;;5051583;28;20386;-91
2022/11/12 10:54:20;;;;;;;38.23;28.63;;;;;;;;;;5054151;28;20381;-90
2022/11/12 10:56:48;;;;;;;37.28;28.65;;;;;;;;;;5046028;28;20379;-91
2022/11/12 10:59:18;;;;;;;38.08;30.17;;;;;;;;;;5035591;28;20422;-90
2022/11/12 11:01:45;;;;;;;34.05;27.27;;;;;;;;;;5034209;28;20399;-90
2022/11/12 11:04:30;;;;;;;37.63;29.40;;;;;;;;;;5034356;28;20840;-90
2022/11/12 11:07:02;;;;;;;40.58;30.25;;;;;;;;;;5033965;28;20378;-90
2022/11/12 11:09:28;;;;;;;37.03;29.55;;;;;;;;;;5034285;28;20378;-91
2022/11/12 11:11:54;;;;;;;38.88;31.20;;;;;;;;;;5034158;28;20474;-90
2022/11/12 11:14:25;;;;;;;46.88;33.55;;;;;;;;;;5034067;28;20390;-90
2022/11/12 11:16:56;;;;;;;39.45;31.05;;;;;;;;;;5033802;28;20391;-90
2022/11/12 11:19:22;;;;;;;38.05;28.90;;;;;;;;;;5033887;28;20406;-91
2022/11/12 11:21:48;;;;;;;41.85;32.15;;;;;;;;;;5033785;28;20458;-90
2022/11/12 11:24:20;;;;;;;39.65;31.80;;;;;;;;;;5034306;28;20920;-91
2022/11/12 11:26:58;;;;;;;34.43;27.80;;;;;;;;;;5033718;28;20466;-91
2022/11/12 11:29:43;;;;;;;34.17;26.90;;;;;;;;;;5033990;28;20867;-89
2022/11/12 11:32:21;;;;;;;28.02;23.98;;;;;;;;;;5033662;28;20384;-90
2022/11/12 11:34:59;;;;;;;25.38;22.60;;;;;;;;;;5033850;28;20486;-91
2022/11/12 11:37:27;;;;;;;27.77;23.08;;;;;;;;;;5032463;28;20802;-90
2022/11/12 11:39:53;;;;;;;30.97;26.23;;;;;;;;;;5036382;28;20494;-91
2022/11/12 11:42:25;;;;;;;36.60;30.33;;;;;;;;;;5033798;28;20880;-91
2022/11/12 11:44:54;;;;;;;31.58;26.25;;;;;;;;;;5033687;28;20890;-90
2022/11/12 11:47:37;;;;;;;30.97;25.37;;;;;;;;;;5033226;28;20426;-89
2022/11/12 11:50:06;;;;;;;27.85;24.60;;;;;;;;;;5033419;28;20391;-92
2022/11/12 11:52:32;;;;;;;27.98;23.23;;;;;;;;;;5033908;28;20763;-91
2022/11/12 11:55:20;;;;;;;30.25;25.00;;;;;;;;;;5046689;28;20452;-90
2022/11/12 11:58:00;;;;;;;30.05;24.90;;;;;;;;;;5029960;28;20411;-91
2022/11/12 12:00:33;;;;;;;27.63;24.05;;;;;;;;;;5035378;28;20394;-91
2022/11/12 12:03:06;;;;;;;25.98;23.20;;;;;;;;;;5044430;28;20383;-90
2022/11/12 12:05:41;;;;;;;28.90;24.63;;;;;;;;;;5048760;28;20382;-91
2022/11/12 12:08:30;;;;;;;27.67;24.25;;;;;;;;;;5049861;28;20383;-91
2022/11/12 12:11:02;;;;;;;25.25;22.55;;;;;;;;;;5050637;28;20369;-90
2022/11/12 12:13:43;;;;;;;26.33;23.35;;;;;;;;;;5054279;28;20380;-92
2022/11/12 12:16:24;;;;;;;25.38;22.48;;;;;;;;;;5043903;28;20383;-91
2022/11/12 12:18:59;;;;;;;29.58;22.85;;;;;;;;;;5037295;28;20485;-91
2022/11/12 12:21:29;;;;;;;28.17;23.60;;;;;;;;;;5033580;28;20375;-91
2022/11/12 12:24:01;;;;;;;35.53;28.48;;;;;;;;;;5033367;28;20395;-91
2022/11/12 12:26:35;;;;;;;34.15;28.13;;;;;;;;;;5032958;28;20387;-90
2022/11/12 12:29:01;;;;;;;32.35;27.55;;;;;;;;;;5032959;28;20783;-90
2022/11/12 12:31:30;;;;;;;32.58;27.70;;;;;;;;;;5032681;28;20383;-90
2022/11/12 12:33:59;;;;;;;30.20;26.70;;;;;;;;;;5033728;28;20433;-90
2022/11/12 12:36:35;;;;;;;32.50;27.17;;;;;;;;;;5034745;28;20875;-90
2022/11/12 12:39:01;;;;;;;32.67;27.07;;;;;;;;;;5033070;28;20406;-91
2022/11/12 12:41:35;;;;;;;28.83;25.52;;;;;;;;;;5015217;28;20402;-91
2022/11/12 12:44:08;;;;;;;30.40;25.55;;;;;;;;;;5033800;28;20430;-90
2022/11/12 12:46:39;;;;;;;31.02;26.52;;;;;;;;;;5016862;28;20390;-90
2022/11/12 12:49:06;;;;;;;30.10;26.33;;;;;;;;;;5032954;28;20379;-90
2022/11/12 12:51:33;;;;;;;30.63;27.33;;;;;;;;;;5032629;28;20414;-90
2022/11/12 12:53:59;;;;;;;32.60;27.13;;;;;;;;;;5032137;28;20375;-91
2022/11/12 12:56:45;;;;;;;33.15;28.00;;;;;;;;;;5035674;28;20387;-91
2022/11/12 12:59:24;;;;;;;38.90;31.40;;;;;;;;;;5052754;28;20452;-91
2022/11/12 13:01:58;;;;;;;36.83;29.77;;;;;;;;;;5038706;28;20883;-90
2022/11/12 13:04:50;;;;;;;39.33;30.52;;;;;;;;;;5038970;28;20370;-90
2022/11/12 13:07:16;;;;;;;39.25;31.40;;;;;;;;;;5038888;28;20383;-90
2022/11/12 13:09:42;;;;;;;39.80;31.00;;;;;;;;;;5042577;28;20435;-90
2022/11/12 13:14:35;;;;;;;33.58;28.73;;;;;;;;;;5052792;28;20381;-91
2022/11/12 13:17:09;;;;;;;30.05;26.63;;;;;;;;;;5039175;28;20454;-92
2022/11/12 13:19:46;;;;;;;33.30;26.52;;;;;;;;;;5039895;28;20438;-92
2022/11/12 13:22:18;;;;;;;29.60;25.42;;;;;;;;;;5042233;28;20378;-90
2022/11/12 13:25:03;;;;;;;29.27;25.33;;;;;;;;;;5040457;28;20379;-91
2022/11/12 13:27:44;;;;;;;29.80;25.17;;;;;;;;;;5039240;28;20406;-92
2022/11/12 13:30:13;;;;;;;31.95;26.77;;;;;;;;;;5039080;28;20922;-90
2022/11/12 13:32:51;;;;;;;32.67;27.10;;;;;;;;;;5040310;28;20371;-91
2022/11/12 13:35:23;;;;;;;29.25;25.50;;;;;;;;;;5042565;28;20374;-91
2022/11/12 13:38:03;;;;;;;28.20;24.67;;;;;;;;;;5039238;28;20741;-91
2022/11/12 13:40:29;;;;;;;30.57;26.50;;;;;;;;;;5039309;28;20383;-91
2022/11/12 13:43:16;;;;;;;37.53;29.42;;;;;;;;;;5039155;28;20467;-90
2022/11/12 13:45:45;;;;;;;37.80;30.38;;;;;;;;;;5039089;28;20383;-90
2022/11/12 13:48:13;;;;;;;38.57;30.17;;;;;;;;;;5038906;28;20386;-90
2022/11/12 13:50:40;;;;;;;39.50;28.15;;;;;;;;;;5038562;28;20745;-90
2022/11/12 13:53:08;;;;;;;30.73;26.15;;;;;;;;;;5038436;28;20442;-90
2022/11/12 13:55:34;;;;;;;31.88;26.73;;;;;;;;;;5037079;28;20391;-91
2022/11/12 13:58:00;;;;;;;42.30;29.13;;;;;;;;;;5038396;28;20457;-91
2022/11/12 14:00:29;;;;;;;32.20;23.63;;;;;;;;;;5038724;28;20928;-90
2022/11/12 14:02:57;;;;;;;45.75;31.30;;;;;;;;;;5038935;28;20402;-92
2022/11/12 14:05:47;;;;;;;33.25;25.38;;;;;;;;;;5039620;28;20441;-91
2022/11/12 14:08:31;;;;;;;82.70;52.50;;;;;;;;;;5047430;28;20380;-91
2022/11/12 14:11:03;;;;;;;29.08;23.10;;;;;;;;;;5036422;28;20812;-91
2022/11/12 14:13:35;;;;;;;32.80;27.00;;;;;;;;;;5035314;28;20433;-90
2022/11/12 14:16:09;;;;;;;51.53;35.95;;;;;;;;;;5035175;28;20860;-90
2022/11/12 14:18:47;;;;;;;27.38;22.73;;;;;;;;;;5035317;28;20409;-89
2022/11/12 14:21:17;;;;;;;25.03;21.63;;;;;;;;;;5049696;28;20382;-87
2022/11/12 14:23:45;;;;;;;27.10;23.10;;;;;;;;;;5023175;28;20419;-87
2022/11/12 14:26:12;;;;;;;23.47;21.03;;;;;;;;;;5033131;28;20768;-88
2022/11/12 14:28:42;;;;;;;25.13;22.48;;;;;;;;;;5034283;28;20872;-87
2022/11/12 14:31:12;;;;;;;39.95;26.85;;;;;;;;;;5031577;28;20386;-89
2022/11/12 14:33:38;;;;;;;25.08;19.30;;;;;;;;;;5034667;28;20382;-86
2022/11/12 14:36:12;;;;;;;40.78;24.48;;;;;;;;;;5032812;28;20756;-87
2022/11/12 14:38:41;;;;;;;24.77;19.17;;;;;;;;;;5020272;28;20415;-84
2022/11/12 14:41:08;;;;;;;21.65;17.33;;;;;;;;;;5032080;28;20462;-84
2022/11/12 14:43:40;;;;;;;33.22;21.33;;;;;;;;;;5018093;28;20386;-85
2022/11/12 14:46:07;;;;;;;33.50;20.60;;;;;;;;;;5016657;28;20868;-85
2022/11/12 14:48:48;;;;;;;15.68;13.98;;;;;;;;;;5034363;28;20578;-84
2022/11/12 14:51:14;;;;;;;14.85;13.35;;;;;;;;;;5034214;28;20376;-84
2022/11/12 14:53:46;;;;;;;15.20;13.60;;;;;;;;;;5034115;28;20379;-84
2022/11/12 14:56:22;;;;;;;14.63;13.15;;;;;;;;;;5034182;28;20391;-83
2022/11/12 14:58:49;;;;;;;18.58;14.95;;;;;;;;;;5036143;28;20509;-83
2022/11/12 15:01:19;;;;;;;48.85;27.48;;;;;;;;;;5033770;28;20403;-85
2022/11/12 15:03:45;;;;;;;20.67;15.18;;;;;;;;;;5034068;28;20426;-84
2022/11/12 15:06:11;;;;;;;18.20;15.55;;;;;;;;;;5034180;28;20383;-85
2022/11/12 15:08:38;;;;;;;28.85;15.55;;;;;;;;;;5030831;28;20760;-85
2022/11/12 15:11:17;;;;;;;20.07;15.13;;;;;;;;;;5032867;28;20476;-85
2022/11/12 15:13:44;;;;;;;21.20;16.23;;;;;;;;;;5032850;28;20411;-88
2022/11/12 15:16:10;;;;;;;17.23;14.65;;;;;;;;;;5033624;28;20379;-87
2022/11/12 15:18:38;;;;;;;15.95;13.60;;;;;;;;;;5033666;28;20427;-87
2022/11/12 15:21:04;;;;;;;15.35;13.75;;;;;;;;;;5033176;28;20737;-88
2022/11/12 15:23:30;;;;;;;15.77;14.10;;;;;;;;;;5033506;28;20383;-87
2022/11/12 15:26:00;;;;;;;17.07;15.27;;;;;;;;;;5033419;28;20415;-86
2022/11/12 15:28:26;;;;;;;19.90;16.77;;;;;;;;;;5033387;28;20441;-87
2022/11/12 15:31:05;;;;;;;21.05;15.90;;;;;;;;;;5035430;28;20403;-87
2022/11/12 15:33:31;;;;;;;17.10;15.10;;;;;;;;;;5031317;28;20398;-86
2022/11/12 15:35:58;;;;;;;17.98;15.43;;;;;;;;;;5033395;28;20383;-86
2022/11/12 15:38:30;;;;;;;19.83;17.67;;;;;;;;;;5047190;28;20505;-87
2022/11/12 15:40:57;;;;;;;21.83;17.90;;;;;;;;;;5032915;28;20934;-87
2022/11/12 15:43:25;;;;;;;21.67;18.02;;;;;;;;;;5033106;28;20733;-87
2022/11/12 15:45:52;;;;;;;22.23;18.25;;;;;;;;;;5036015;28;20427;-86
2022/11/12 15:48:18;;;;;;;29.23;23.50;;;;;;;;;;5040743;28;20410;-88
2022/11/12 15:50:45;;;;;;;25.83;20.27;;;;;;;;;;5040494;28;20872;-87
2022/11/12 15:53:11;;;;;;;19.08;15.77;;;;;;;;;;5046609;28;20375;-85
2022/11/12 15:55:37;;;;;;;19.15;16.85;;;;;;;;;;5047162;28;20383;-85
2022/11/12 15:58:04;;;;;;;19.33;17.20;;;;;;;;;;5035830;28;20417;-84
2022/11/12 16:00:32;;;;;;;21.90;17.20;;;;;;;;;;5032801;28;20414;-85
2022/11/12 16:03:10;;;;;;;67.45;46.45;;;;;;;;;;5031861;28;20384;-84
2022/11/12 16:05:36;;;;;;;19.45;16.00;;;;;;;;;;5025483;28;20383;-85
2022/11/12 16:08:02;;;;;;;21.20;17.58;;;;;;;;;;5032949;28;20890;-83
2022/11/12 16:10:28;;;;;;;21.42;17.35;;;;;;;;;;5031972;28;20479;-85
2022/11/12 16:12:56;;;;;;;20.25;18.05;;;;;;;;;;5031184;28;20383;-85
2022/11/12 16:15:24;;;;;;;21.63;18.00;;;;;;;;;;5031583;28;20387;-85
2022/11/12 16:17:50;;;;;;;21.77;18.07;;;;;;;;;;5030611;28;20970;-84
2022/11/12 16:20:20;;;;;;;92.10;50.88;;;;;;;;;;5032590;28;20470;-85
2022/11/12 16:22:46;;;;;;;25.63;20.85;;;;;;;;;;5032521;28;20485;-85
2022/11/12 16:25:12;;;;;;;29.00;21.63;;;;;;;;;;5026192;28;20391;-85
2022/11/12 16:27:38;;;;;;;26.83;20.98;;;;;;;;;;5024563;28;20385;-85
2022/11/12 16:30:06;;;;;;;33.63;24.08;;;;;;;;;;5031785;28;20383;-84
2022/11/12 16:32:32;;;;;;;35.15;24.45;;;;;;;;;;5031039;28;20370;-85
2022/11/12 16:34:58;;;;;;;47.55;32.55;;;;;;;;;;5025294;28;20377;-85
2022/11/12 16:37:24;;;;;;;52.10;34.30;;;;;;;;;;5031977;28;21002;-85
2022/11/12 16:39:50;;;;;;;49.42;35.30;;;;;;;;;;5031947;28;20383;-84
2022/11/12 16:42:16;;;;;;;55.72;35.03;;;;;;;;;;5032147;28;20457;-85
2022/11/12 16:44:42;;;;;;;53.27;33.57;;;;;;;;;;5032288;28;20763;-85
2022/11/12 16:47:10;;;;;;;46.63;31.35;;;;;;;;;;5031812;28;20396;-86
2022/11/12 16:49:36;;;;;;;37.05;25.75;;;;;;;;;;5032299;28;20391;-86
2022/11/12 16:52:02;;;;;;;54.03;33.75;;;;;;;;;;5031869;28;20387;-86
2022/11/12 16:54:28;;;;;;;30.13;22.52;;;;;;;;;;5032068;28;20748;-85
2022/11/12 16:56:54;;;;;;;47.38;31.98;;;;;;;;;;5032137;28;20398;-85
2022/11/12 16:59:20;;;;;;;56.03;36.55;;;;;;;;;;5031440;28;20418;-85
2022/11/12 17:01:46;;;;;;;61.90;39.67;;;;;;;;;;5031399;28;20764;-84
2022/11/12 17:04:12;;;;;;;52.42;33.65;;;;;;;;;;5031670;28;20381;-84
2022/11/12 17:06:39;;;;;;;57.42;37.88;;;;;;;;;;5033834;28;20876;-84
2022/11/12 17:09:06;;;;;;;52.03;34.13;;;;;;;;;;5041757;28;20422;-84
2022/11/12 17:11:32;;;;;;;53.33;33.25;;;;;;;;;;5034055;28;20399;-84
2022/11/12 17:14:00;;;;;;;57.92;37.45;;;;;;;;;;5034374;28;20387;-86
2022/11/12 17:16:26;;;;;;;52.38;33.15;;;;;;;;;;5031302;28;20872;-86
2022/11/12 17:18:55;;;;;;;52.80;34.50;;;;;;;;;;5031594;28;20464;-84
2022/11/12 17:21:21;;;;;;;47.40;31.10;;;;;;;;;;5032258;28;20528;-85
2022/11/12 17:23:48;;;;;;;50.30;33.15;;;;;;;;;;5037055;28;20398;-85
2022/11/12 17:26:16;;;;;;;46.17;29.92;;;;;;;;;;5031662;28;20817;-84
2022/11/12 17:28:42;;;;;;;48.33;29.77;;;;;;;;;;5045026;28;20470;-83
2022/11/12 17:31:12;;;;;;;50.55;31.95;;;;;;;;;;5031776;28;20860;-84
2022/11/12 17:33:39;;;;;;;52.03;30.07;;;;;;;;;;5031747;28;20466;-85
2022/11/12 17:36:06;;;;;;;59.97;37.42;;;;;;;;;;5035071;28;20738;-85
2022/11/12 17:38:32;;;;;;;46.10;28.63;;;;;;;;;;5033623;28;20411;-85
2022/11/12 17:40:58;;;;;;;47.78;29.58;;;;;;;;;;5031692;28;20371;-85
2022/11/12 17:43:25;;;;;;;41.88;27.15;;;;;;;;;;5033166;28;20426;-85
2022/11/12 17:45:51;;;;;;;40.97;26.83;;;;;;;;;;5035819;28;20756;-85
2022/11/12 17:48:17;;;;;;;52.42;29.45;;;;;;;;;;5035017;28;20379;-85
2022/11/12 17:50:44;;;;;;;52.78;31.30;;;;;;;;;;5035079;28;20387;-85
2022/11/12 17:53:10;;;;;;;43.33;27.48;;;;;;;;;;5035385;28;20433;-85
2022/11/12 17:55:36;;;;;;;41.53;27.97;;;;;;;;;;5035227;28;20398;-85
2022/11/12 17:58:02;;;;;;;42.20;27.23;;;;;;;;;;5035104;28;20406;-87
2022/11/12 18:00:28;;;;;;;43.28;26.33;;;;;;;;;;5034469;28;20379;-86
2022/11/12 18:02:58;;;;;;;37.67;24.48;;;;;;;;;;5035047;28;20441;-85
2022/11/12 18:05:24;;;;;;;36.40;24.55;;;;;;;;;;5034669;28;20430;-85
2022/11/12 18:07:50;;;;;;;36.13;23.95;;;;;;;;;;5028180;28;20411;-85
2022/11/12 18:10:17;;;;;;;33.58;23.95;;;;;;;;;;5022400;28;20407;-86
2022/11/12 18:12:43;;;;;;;38.17;25.33;;;;;;;;;;5033225;28;20391;-88
2022/11/12 18:15:09;;;;;;;32.90;23.83;;;;;;;;;;5028063;28;20388;-86
2022/11/12 18:17:35;;;;;;;34.70;24.75;;;;;;;;;;5027972;28;20725;-86
2022/11/12 18:20:02;;;;;;;36.45;25.27;;;;;;;;;;5034176;28;20387;-87
2022/11/12 18:22:28;;;;;;;35.20;24.83;;;;;;;;;;5034752;28;20462;-87
2022/11/12 18:24:54;;;;;;;32.38;22.98;;;;;;;;;;5033889;28;20383;-87
2022/11/12 18:27:20;;;;;;;31.48;24.23;;;;;;;;;;5032107;28;20379;-86
2022/11/12 18:29:46;;;;;;;35.43;24.00;;;;;;;;;;5033096;28;20398;-87
2022/11/12 18:32:12;;;;;;;30.15;24.25;;;;;;;;;;5023552;28;20431;-87
2022/11/12 18:34:43;;;;;;;32.15;22.70;;;;;;;;;;5025237;28;20411;-89
2022/11/12 18:37:09;;;;;;;30.65;22.65;;;;;;;;;;5023429;28;20427;-88
2022/11/12 18:39:35;;;;;;;27.33;21.17;;;;;;;;;;5023708;28;20458;-88
2022/11/12 18:42:02;;;;;;;28.40;21.40;;;;;;;;;;5028299;28;20889;-86
2022/11/12 18:44:28;;;;;;;26.15;21.13;;;;;;;;;;5026615;28;20435;-85
2022/11/12 18:46:54;;;;;;;28.50;21.52;;;;;;;;;;5021701;28;20468;-85
2022/11/12 18:49:20;;;;;;;32.40;21.88;;;;;;;;;;5027411;28;20404;-86
2022/11/12 18:51:46;;;;;;;28.40;21.17;;;;;;;;;;5029132;28;20391;-86
2022/11/12 18:54:12;;;;;;;25.52;20.10;;;;;;;;;;5027574;28;20390;-86
2022/11/12 18:56:38;;;;;;;30.77;20.33;;;;;;;;;;5026586;28;20380;-85
2022/11/12 18:59:05;;;;;;;25.42;20.45;;;;;;;;;;5029507;28;20499;-86
2022/11/12 19:01:31;;;;;;;26.55;20.75;;;;;;;;;;5028516;28;20411;-85
2022/11/12 19:03:57;;;;;;;27.27;19.95;;;;;;;;;;5026334;28;20396;-86
2022/11/12 19:06:24;;;;;;;25.90;20.02;;;;;;;;;;5019093;28;20746;-85
2022/11/12 19:08:51;;;;;;;46.67;23.73;;;;;;;;;;5023158;28;20451;-85
2022/11/12 19:11:20;;;;;;;22.90;16.15;;;;;;;;;;5022486;28;20392;-86
2022/11/12 19:13:50;;;;;;;16.92;13.68;;;;;;;;;;5011347;28;20384;-87
2022/11/12 19:16:17;;;;;;;13.07;11.77;;;;;;;;;;5011010;28;20470;-85
2022/11/12 19:18:44;;;;;;;12.88;11.57;;;;;;;;;;5019805;28;20405;-87
2022/11/12 19:21:14;;;;;;;12.32;11.05;;;;;;;;;;5030892;28;20398;-85
2022/11/12 19:23:41;;;;;;;15.40;12.15;;;;;;;;;;5033225;28;20382;-85
2022/11/12 19:26:08;;;;;;;13.57;11.57;;;;;;;;;;5033533;28;20382;-85
2022/11/12 19:28:34;;;;;;;12.25;10.73;;;;;;;;;;5033636;28;20422;-85